sensor_id;sensor_type;location;lat;lon;timestamp;pressure;altitude;pressure_sealevel;temperature;humidity
52307;BME280;38249;48.920;12.882;2022-11-20T00:01:29;96448.19;;;7.24;59.25
52307;BME280;38249;48.920;12.882;2022-11-20T00:03:57;96450.31;;;7.41;59.03
52307;BME280;38249;48.920;12.882;2022-11-20T00:06:25;96443.41;;;7.40;59.35
52307;BME280;38249;48.920;12.882;2022-11-20T00:08:54;96446.59;;;7.42;59.19
52307;BME280;38249;48.920;12.882;2022-11-20T00:11:24;96450.03;;;7.42;59.16
52307;BME280;38249;48.920;12.882;2022-11-20T00:13:52;96454.22;;;7.29;59.32
52307;BME280;38249;48.920;12.882;2022-11-20T00:16:20;96448.31;;;7.32;59.25
52307;BME280;38249;48.920;12.882;2022-11-20T00:18:47;96457.66;;;7.30;59.20
52307;BME280;38249;48.920;12.882;2022-11-20T00:21:16;96456.31;;;7.32;59.02
52307;BME280;38249;48.920;12.882;2022-11-20T00:23:43;96453.50;;;7.24;58.99
52307;BME280;38249;48.920;12.882;2022-11-20T00:26:12;96465.25;;;7.23;58.96
52307;BME280;38249;48.920;12.882;2022-11-20T00:28:41;96468.69;;;7.23;58.83
52307;BME280;38249;48.920;12.882;2022-11-20T00:31:09;96470.88;;;7.21;59.02
52307;BME280;38249;48.920;12.882;2022-11-20T00:33:36;96461.78;;;7.03;59.31
52307;BME280;38249;48.920;12.882;2022-11-20T00:36:05;96459.91;;;7.23;58.34
52307;BME280;38249;48.920;12.882;2022-11-20T00:38:32;96469.88;;;7.17;58.61
52307;BME280;38249;48.920;12.882;2022-11-20T00:41:01;96466.75;;;7.29;58.60
52307;BME280;38249;48.920;12.882;2022-11-20T00:43:28;96464.66;;;7.07;58.10
52307;BME280;38249;48.920;12.882;2022-11-20T00:45:59;96471.28;;;7.28;58.30
52307;BME280;38249;48.920;12.882;2022-11-20T00:48:26;96465.38;;;7.12;58.82
52307;BME280;38249;48.920;12.882;2022-11-20T00:50:53;96475.81;;;7.09;58.69
52307;BME280;38249;48.920;12.882;2022-11-20T00:53:20;96473.97;;;7.09;58.90
52307;BME280;38249;48.920;12.882;2022-11-20T00:55:54;96480.22;;;7.38;58.75
52307;BME280;38249;48.920;12.882;2022-11-20T00:58:21;96480.53;;;7.17;58.83
52307;BME280;38249;48.920;12.882;2022-11-20T01:00:48;96484.25;;;7.16;58.51
52307;BME280;38249;48.920;12.882;2022-11-20T01:03:17;96487.53;;;7.32;58.79
52307;BME280;38249;48.920;12.882;2022-11-20T01:05:44;96482.84;;;7.24;58.39
52307;BME280;38249;48.920;12.882;2022-11-20T01:08:10;96481.31;;;7.18;58.45
52307;BME280;38249;48.920;12.882;2022-11-20T01:10:37;96486.13;;;7.15;58.47
52307;BME280;38249;48.920;12.882;2022-11-20T01:13:03;96484.34;;;7.11;58.17
52307;BME280;38249;48.920;12.882;2022-11-20T01:15:47;96489.44;;;7.07;58.33
52307;BME280;38249;48.920;12.882;2022-11-20T01:18:14;96488.69;;;7.02;58.08
52307;BME280;38249;48.920;12.882;2022-11-20T01:20:42;96489.31;;;7.18;58.45
52307;BME280;38249;48.920;12.882;2022-11-20T01:23:08;96490.13;;;6.94;58.45
52307;BME280;38249;48.920;12.882;2022-11-20T01:25:35;96490.13;;;6.94;58.07
52307;BME280;38249;48.920;12.882;2022-11-20T01:28:01;96479.41;;;6.99;58.27
52307;BME280;38249;48.920;12.882;2022-11-20T01:30:28;96475.66;;;7.00;58.69
52307;BME280;38249;48.920;12.882;2022-11-20T01:32:55;96480.22;;;7.00;58.34
52307;BME280;38249;48.920;12.882;2022-11-20T01:35:21;96482.59;;;7.01;58.26
52307;BME280;38249;48.920;12.882;2022-11-20T01:37:49;96476.75;;;7.18;58.25
52307;BME280;38249;48.920;12.882;2022-11-20T01:40:16;96484.16;;;7.02;58.68
52307;BME280;38249;48.920;12.882;2022-11-20T01:42:46;96480.44;;;7.22;58.56
52307;BME280;38249;48.920;12.882;2022-11-20T01:46:06;96479.16;;;7.39;57.90
52307;BME280;38249;48.920;12.882;2022-11-20T01:48:41;96482.66;;;7.15;58.39
52307;BME280;38249;48.920;12.882;2022-11-20T01:51:15;96476.75;;;7.18;58.74
52307;BME280;38249;48.920;12.882;2022-11-20T01:53:45;96482.16;;;7.13;58.75
52307;BME280;38249;48.920;12.882;2022-11-20T01:56:13;96476.56;;;7.14;58.44
52307;BME280;38249;48.920;12.882;2022-11-20T01:58:44;96478.00;;;7.26;58.25
52307;BME280;38249;48.920;12.882;2022-11-20T02:01:13;96481.03;;;7.19;58.36
52307;BME280;38249;48.920;12.882;2022-11-20T02:03:39;96477.69;;;7.08;58.50
52307;BME280;38249;48.920;12.882;2022-11-20T02:06:11;96472.09;;;7.29;58.52
52307;BME280;38249;48.920;12.882;2022-11-20T02:08:39;96473.97;;;7.09;58.90
52307;BME280;38249;48.920;12.882;2022-11-20T02:11:07;96470.56;;;7.23;58.83
52307;BME280;38249;48.920;12.882;2022-11-20T02:13:37;96471.28;;;7.28;58.40
52307;BME280;38249;48.920;12.882;2022-11-20T02:16:10;96477.22;;;7.25;58.85
52307;BME280;38249;48.920;12.882;2022-11-20T02:18:38;96472.16;;;7.24;58.44
52307;BME280;38249;48.920;12.882;2022-11-20T02:21:07;96459.47;;;7.34;58.25
52307;BME280;38249;48.920;12.882;2022-11-20T02:23:38;96465.63;;;7.35;58.52
52307;BME280;38249;48.920;12.882;2022-11-20T02:26:10;96466.97;;;7.32;58.42
52307;BME280;38249;48.920;12.882;2022-11-20T02:28:37;96476.34;;;7.11;58.73
52307;BME280;38249;48.920;12.882;2022-11-20T02:31:04;96475.25;;;7.12;58.35
52307;BME280;38249;48.920;12.882;2022-11-20T02:33:31;96471.22;;;7.14;57.97
52307;BME280;38249;48.920;12.882;2022-11-20T02:35:57;96481.88;;;7.14;58.03
52307;BME280;38249;48.920;12.882;2022-11-20T02:38:24;96483.97;;;7.18;58.75
52307;BME280;38249;48.920;12.882;2022-11-20T02:40:50;96475.47;;;7.15;58.61
52307;BME280;38249;48.920;12.882;2022-11-20T02:43:18;96477.94;;;7.31;58.24
52307;BME280;38249;48.920;12.882;2022-11-20T02:45:45;96482.44;;;7.11;58.68
52307;BME280;38249;48.920;12.882;2022-11-20T02:48:11;96487.00;;;7.11;58.37
52307;BME280;38249;48.920;12.882;2022-11-20T02:50:38;96479.59;;;7.27;58.76
52307;BME280;38249;48.920;12.882;2022-11-20T02:53:06;96470.06;;;7.21;58.27
52307;BME280;38249;48.920;12.882;2022-11-20T02:55:33;96471.00;;;7.11;58.38
52307;BME280;38249;48.920;12.882;2022-11-20T02:57:59;96474.94;;;7.13;58.49
52307;BME280;38249;48.920;12.882;2022-11-20T03:00:27;96474.47;;;7.30;58.65
52307;BME280;38249;48.920;12.882;2022-11-20T03:02:54;96474.66;;;7.15;58.48
52307;BME280;38249;48.920;12.882;2022-11-20T03:05:22;96480.00;;;7.15;58.27
52307;BME280;38249;48.920;12.882;2022-11-20T03:07:48;96474.38;;;7.16;58.32
52307;BME280;38249;48.920;12.882;2022-11-20T03:10:15;96476.69;;;7.23;58.86
52307;BME280;38249;48.920;12.882;2022-11-20T03:12:42;96482.03;;;7.23;58.19
52307;BME280;38249;48.920;12.882;2022-11-20T03:15:09;96482.47;;;7.30;58.50
52307;BME280;38249;48.920;12.882;2022-11-20T03:17:37;96471.28;;;7.28;58.82
52307;BME280;38249;48.920;12.882;2022-11-20T03:20:04;96478.34;;;7.19;58.90
52307;BME280;38249;48.920;12.882;2022-11-20T03:22:31;96471.06;;;7.06;58.92
52307;BME280;38249;48.920;12.882;2022-11-20T03:24:58;96466.03;;;7.04;58.71
52307;BME280;38249;48.920;12.882;2022-11-20T03:27:24;96475.38;;;7.02;59.05
52307;BME280;38249;48.920;12.882;2022-11-20T03:29:51;96486.31;;;7.00;58.50
52307;BME280;38249;48.920;12.882;2022-11-20T03:32:17;96485.25;;;7.01;58.78
52307;BME280;38249;48.920;12.882;2022-11-20T03:34:45;96486.13;;;7.15;58.70
52307;BME280;38249;48.920;12.882;2022-11-20T03:37:11;96484.44;;;7.01;58.38
52307;BME280;38249;48.920;12.882;2022-11-20T03:39:38;96487.16;;;6.95;58.38
52307;BME280;38249;48.920;12.882;2022-11-20T03:42:04;96486.75;;;6.88;58.89
52307;BME280;38249;48.920;12.882;2022-11-20T03:44:52;96479.59;;;6.84;59.00
52307;BME280;38249;48.920;12.882;2022-11-20T03:47:18;96488.16;;;6.81;58.97
52307;BME280;38249;48.920;12.882;2022-11-20T03:49:46;96475.38;;;7.02;59.15
52307;BME280;38249;48.920;12.882;2022-11-20T03:52:12;96477.09;;;6.92;58.90
52307;BME280;38249;48.920;12.882;2022-11-20T03:54:39;96471.47;;;6.94;59.08
52307;BME280;38249;48.920;12.882;2022-11-20T03:57:05;96466.88;;;7.00;58.80
52307;BME280;38249;48.920;12.882;2022-11-20T03:59:32;96467.66;;;7.00;58.94
52307;BME280;38249;48.920;12.882;2022-11-20T04:01:59;96472.22;;;7.00;58.76
52307;BME280;38249;48.920;12.882;2022-11-20T04:04:25;96478.59;;;6.98;59.02
52307;BME280;38249;48.920;12.882;2022-11-20T04:06:53;96472.44;;;7.03;59.17
52307;BME280;38249;48.920;12.882;2022-11-20T04:09:20;96467.53;;;6.91;58.69
52307;BME280;38249;48.920;12.882;2022-11-20T04:11:46;96467.59;;;6.86;59.13
52307;BME280;38249;48.920;12.882;2022-11-20T04:14:14;96474.06;;;6.99;59.22
52307;BME280;38249;48.920;12.882;2022-11-20T04:16:41;96471.81;;;6.87;58.67
52307;BME280;38249;48.920;12.882;2022-11-20T04:19:10;96467.66;;;7.00;59.25
52307;BME280;38249;48.920;12.882;2022-11-20T04:21:37;96476.16;;;6.83;59.02
52307;BME280;38249;48.920;12.882;2022-11-20T04:24:06;96475.66;;;7.00;58.84
52307;BME280;38249;48.920;12.882;2022-11-20T04:26:33;96481.91;;;6.90;58.62
52307;BME280;38249;48.920;12.882;2022-11-20T04:29:00;96476.94;;;6.84;58.97
52307;BME280;38249;48.920;12.882;2022-11-20T04:31:29;96483.50;;;6.91;59.17
52307;BME280;38249;48.920;12.882;2022-11-20T04:33:59;96467.94;;;6.98;59.33
52307;BME280;38249;48.920;12.882;2022-11-20T04:36:27;96481.47;;;6.83;59.47
52307;BME280;38249;48.920;12.882;2022-11-20T04:38:55;96498.47;;;6.87;59.40
52307;BME280;38249;48.920;12.882;2022-11-20T04:41:25;96471.53;;;6.89;59.32
52307;BME280;38249;48.920;12.882;2022-11-20T04:43:54;96492.84;;;6.89;59.70
52307;BME280;38249;48.920;12.882;2022-11-20T04:46:24;96491.38;;;6.77;59.73
52307;BME280;38249;48.920;12.882;2022-11-20T04:48:51;96486.88;;;6.78;59.41
52307;BME280;38249;48.920;12.882;2022-11-20T04:51:18;96484.50;;;6.71;59.33
52307;BME280;38249;48.920;12.882;2022-11-20T04:53:45;96484.00;;;6.69;59.16
52307;BME280;38249;48.920;12.882;2022-11-20T04:56:12;96499.59;;;6.81;59.32
52307;BME280;38249;48.920;12.882;2022-11-20T04:58:40;96482.47;;;6.87;59.28
52307;BME280;38249;48.920;12.882;2022-11-20T05:01:09;96486.38;;;6.95;59.64
52307;BME280;38249;48.920;12.882;2022-11-20T05:03:36;96477.78;;;6.79;59.43
52307;BME280;38249;48.920;12.882;2022-11-20T05:06:03;96483.03;;;6.84;58.86
52307;BME280;38249;48.920;12.882;2022-11-20T05:08:31;96487.44;;;6.75;59.50
52307;BME280;38249;48.920;12.882;2022-11-20T05:11:01;96488.47;;;6.98;58.77
52307;BME280;38249;48.920;12.882;2022-11-20T05:13:27;96486.88;;;6.78;58.83
52307;BME280;38249;48.920;12.882;2022-11-20T05:16:00;96486.16;;;6.91;59.17
52307;BME280;38249;48.920;12.882;2022-11-20T05:18:27;96481.00;;;6.76;59.39
52307;BME280;38249;48.920;12.882;2022-11-20T05:20:57;96482.13;;;6.94;59.24
52307;BME280;38249;48.920;12.882;2022-11-20T05:23:24;96488.44;;;6.79;58.94
52307;BME280;38249;48.920;12.882;2022-11-20T05:25:52;96481.19;;;6.85;58.67
52307;BME280;38249;48.920;12.882;2022-11-20T05:28:19;96477.56;;;6.75;58.99
52307;BME280;38249;48.920;12.882;2022-11-20T05:30:46;96482.38;;;6.73;58.89
52307;BME280;38249;48.920;12.882;2022-11-20T05:33:14;96479.03;;;6.87;59.12
52307;BME280;38249;48.920;12.882;2022-11-20T05:35:41;96470.34;;;6.76;58.94
52307;BME280;38249;48.920;12.882;2022-11-20T05:38:07;96476.25;;;6.73;58.77
52307;BME280;38249;48.920;12.882;2022-11-20T05:40:34;96468.03;;;6.69;58.91
52307;BME280;38249;48.920;12.882;2022-11-20T05:43:01;96466.13;;;6.75;59.17
52307;BME280;38249;48.920;12.882;2022-11-20T05:45:27;96469.91;;;6.69;59.68
52307;BME280;38249;48.920;12.882;2022-11-20T05:47:57;96466.72;;;6.91;58.93
52307;BME280;38249;48.920;12.882;2022-11-20T05:50:25;96468.44;;;6.82;59.19
52307;BME280;38249;48.920;12.882;2022-11-20T05:52:52;96466.19;;;6.70;58.82
52307;BME280;38249;48.920;12.882;2022-11-20T05:55:19;96470.13;;;6.72;59.19
52307;BME280;38249;48.920;12.882;2022-11-20T05:57:45;96467.31;;;6.64;58.80
52307;BME280;38249;48.920;12.882;2022-11-20T06:00:13;96473.03;;;6.76;59.24
52307;BME280;38249;48.920;12.882;2022-11-20T06:02:40;96475.25;;;6.69;58.97
52307;BME280;38249;48.920;12.882;2022-11-20T06:05:07;96482.53;;;6.82;58.99
52307;BME280;38249;48.920;12.882;2022-11-20T06:07:35;96482.69;;;6.91;59.38
52307;BME280;38249;48.920;12.882;2022-11-20T06:10:02;96490.66;;;6.72;59.05
52307;BME280;38249;48.920;12.882;2022-11-20T06:12:31;96493.25;;;6.77;59.20
52307;BME280;38249;48.920;12.882;2022-11-20T06:14:57;96487.81;;;6.63;59.13
52307;BME280;38249;48.920;12.882;2022-11-20T06:17:24;96481.69;;;6.63;59.56
52307;BME280;38249;48.920;12.882;2022-11-20T06:19:50;96491.28;;;6.64;59.00
52307;BME280;38249;48.920;12.882;2022-11-20T06:22:17;96484.84;;;6.70;58.81
52307;BME280;38249;48.920;12.882;2022-11-20T06:24:45;96489.19;;;6.85;59.15
52307;BME280;38249;48.920;12.882;2022-11-20T06:27:12;96488.78;;;6.72;59.31
52307;BME280;38249;48.920;12.882;2022-11-20T06:29:38;96482.94;;;6.70;59.13
52307;BME280;38249;48.920;12.882;2022-11-20T06:32:05;96474.97;;;6.70;58.99
52307;BME280;38249;48.920;12.882;2022-11-20T06:34:31;96490.66;;;6.72;59.12
52307;BME280;38249;48.920;12.882;2022-11-20T06:36:58;96478.91;;;6.73;59.13
52307;BME280;38249;48.920;12.882;2022-11-20T06:39:24;96490.09;;;6.75;59.55
52307;BME280;38249;48.920;12.882;2022-11-20T06:41:52;96485.94;;;6.88;59.33
52307;BME280;38249;48.920;12.882;2022-11-20T06:44:19;96491.44;;;6.72;59.72
52307;BME280;38249;48.920;12.882;2022-11-20T06:46:45;96488.28;;;6.70;59.18
52307;BME280;38249;48.920;12.882;2022-11-20T06:49:12;96493.81;;;6.74;59.77
52307;BME280;38249;48.920;12.882;2022-11-20T06:51:38;96494.09;;;6.72;59.24
52307;BME280;38249;48.920;12.882;2022-11-20T06:54:05;96493.53;;;6.75;59.13
52307;BME280;38249;48.920;12.882;2022-11-20T06:56:31;96502.31;;;6.76;59.60
52307;BME280;38249;48.920;12.882;2022-11-20T06:59:03;96505.47;;;7.02;59.29
52307;BME280;38249;48.920;12.882;2022-11-20T07:01:30;96491.66;;;6.76;59.60
52307;BME280;38249;48.920;12.882;2022-11-20T07:03:57;96505.25;;;6.74;59.22
52307;BME280;38249;48.920;12.882;2022-11-20T07:06:23;96493.53;;;6.75;58.88
52307;BME280;38249;48.920;12.882;2022-11-20T07:08:50;96490.47;;;6.87;59.45
52307;BME280;38249;48.920;12.882;2022-11-20T07:11:17;96498.53;;;6.82;59.10
52307;BME280;38249;48.920;12.882;2022-11-20T07:13:47;96508.13;;;6.83;59.55
52307;BME280;38249;48.920;12.882;2022-11-20T07:16:15;96507.56;;;7.05;59.46
52307;BME280;38249;48.920;12.882;2022-11-20T07:18:42;96497.13;;;6.90;59.55
52307;BME280;38249;48.920;12.882;2022-11-20T07:21:10;96498.88;;;7.00;59.74
52307;BME280;38249;48.920;12.882;2022-11-20T07:23:37;96499.84;;;6.85;59.56
52307;BME280;38249;48.920;12.882;2022-11-20T07:26:04;96503.72;;;6.92;59.91
52307;BME280;38249;48.920;12.882;2022-11-20T07:28:31;96501.94;;;6.88;59.25
52307;BME280;38249;48.920;12.882;2022-11-20T07:30:57;96509.88;;;6.93;59.73
52307;BME280;38249;48.920;12.882;2022-11-20T07:33:25;96502.19;;;7.10;59.65
52307;BME280;38249;48.920;12.882;2022-11-20T07:35:52;96508.78;;;6.94;59.80
52307;BME280;38249;48.920;12.882;2022-11-20T07:38:18;96507.69;;;6.95;59.28
52307;BME280;38249;48.920;12.882;2022-11-20T07:40:45;96500.84;;;6.89;59.76
52307;BME280;38249;48.920;12.882;2022-11-20T07:43:11;96503.56;;;6.84;59.66
52307;BME280;38249;48.920;12.882;2022-11-20T07:45:38;96514.44;;;6.87;59.21
52307;BME280;38249;48.920;12.882;2022-11-20T07:48:05;96515.75;;;6.90;59.91
52307;BME280;38249;48.920;12.882;2022-11-20T07:50:33;96495.34;;;7.04;59.68
52307;BME280;38249;48.920;12.882;2022-11-20T07:53:03;96512.41;;;6.79;60.70
52307;BME280;38249;48.920;12.882;2022-11-20T07:55:30;96517.09;;;6.63;60.18
52307;BME280;38249;48.920;12.882;2022-11-20T07:57:57;96507.66;;;6.76;60.20
52307;BME280;38249;48.920;12.882;2022-11-20T08:00:24;96509.94;;;6.88;60.21
52307;BME280;38249;48.920;12.882;2022-11-20T08:02:51;96511.56;;;6.84;60.16
52307;BME280;38249;48.920;12.882;2022-11-20T08:05:18;96509.13;;;6.87;60.12
52307;BME280;38249;48.920;12.882;2022-11-20T08:07:46;96523.97;;;6.93;60.35
52307;BME280;38249;48.920;12.882;2022-11-20T08:10:14;96513.88;;;6.90;60.08
52307;BME280;38249;48.920;12.882;2022-11-20T08:12:44;96509.53;;;7.00;60.61
52307;BME280;38249;48.920;12.882;2022-11-20T08:15:29;96515.81;;;6.85;60.19
52307;BME280;38249;48.920;12.882;2022-11-20T08:18:00;96496.28;;;7.13;60.54
52307;BME280;38249;48.920;12.882;2022-11-20T08:20:26;96507.91;;;6.98;60.57
52307;BME280;38249;48.920;12.882;2022-11-20T08:22:59;96508.19;;;7.21;60.49
52307;BME280;38249;48.920;12.882;2022-11-20T08:25:26;96504.34;;;7.08;60.62
52307;BME280;38249;48.920;12.882;2022-11-20T08:27:52;96508.53;;;7.14;60.04
52307;BME280;38249;48.920;12.882;2022-11-20T08:30:19;96504.19;;;7.19;60.14
52307;BME280;38249;48.920;12.882;2022-11-20T08:32:45;96508.59;;;7.28;60.36
52307;BME280;38249;48.920;12.882;2022-11-20T08:35:12;96503.81;;;7.30;59.75
52307;BME280;38249;48.920;12.882;2022-11-20T08:37:39;96509.63;;;7.32;59.84
52307;BME280;38249;48.920;12.882;2022-11-20T08:40:09;96506.34;;;7.60;59.80
52307;BME280;38249;48.920;12.882;2022-11-20T08:42:36;96513.97;;;7.47;59.94
52307;BME280;38249;48.920;12.882;2022-11-20T08:45:03;96503.13;;;7.58;59.99
52307;BME280;38249;48.920;12.882;2022-11-20T08:47:30;96506.41;;;7.55;60.23
52307;BME280;38249;48.920;12.882;2022-11-20T08:49:57;96500.75;;;7.56;60.04
52307;BME280;38249;48.920;12.882;2022-11-20T08:52:23;96503.50;;;7.51;60.22
52307;BME280;38249;48.920;12.882;2022-11-20T08:54:50;96496.75;;;7.59;60.09
52307;BME280;38249;48.920;12.882;2022-11-20T08:57:18;96496.44;;;7.79;60.23
52307;BME280;38249;48.920;12.882;2022-11-20T08:59:44;96496.88;;;7.67;59.90
52307;BME280;38249;48.920;12.882;2022-11-20T09:02:11;96502.66;;;7.75;59.90
52307;BME280;38249;48.920;12.882;2022-11-20T09:04:38;96507.13;;;7.79;60.19
52307;BME280;38249;48.920;12.882;2022-11-20T09:07:04;96505.72;;;7.82;60.23
52307;BME280;38249;48.920;12.882;2022-11-20T09:09:31;96501.19;;;7.82;59.72
52307;BME280;38249;48.920;12.882;2022-11-20T09:11:57;96501.69;;;7.84;59.93
52307;BME280;38249;48.920;12.882;2022-11-20T09:14:25;96508.94;;;7.98;60.24
52307;BME280;38249;48.920;12.882;2022-11-20T09:16:54;96501.91;;;7.88;60.08
52307;BME280;38249;48.920;12.882;2022-11-20T09:19:21;96507.44;;;7.92;60.06
52307;BME280;38249;48.920;12.882;2022-11-20T09:21:47;96506.66;;;7.91;60.01
52307;BME280;38249;48.920;12.882;2022-11-20T09:24:14;96503.63;;;7.98;59.99
52307;BME280;38249;48.920;12.882;2022-11-20T09:26:40;96508.56;;;8.04;59.86
52307;BME280;38249;48.920;12.882;2022-11-20T09:29:07;96513.03;;;8.09;59.74
52307;BME280;38249;48.920;12.882;2022-11-20T09:31:35;96504.06;;;8.19;59.97
52307;BME280;38249;48.920;12.882;2022-11-20T09:34:01;96510.38;;;8.09;60.00
52307;BME280;38249;48.920;12.882;2022-11-20T09:36:28;96507.22;;;8.07;59.93
52307;BME280;38249;48.920;12.882;2022-11-20T09:38:54;96512.56;;;8.07;60.07
52307;BME280;38249;48.920;12.882;2022-11-20T09:41:56;96509.88;;;8.40;59.62
52307;BME280;38249;48.920;12.882;2022-11-20T09:44:37;96508.16;;;8.30;60.04
52307;BME280;38249;48.920;12.882;2022-11-20T09:47:11;96507.66;;;8.28;60.11
52307;BME280;38249;48.920;12.882;2022-11-20T09:56:26;96505.44;;;8.16;60.07
52307;BME280;38249;48.920;12.882;2022-11-20T10:02:48;96496.94;;;8.47;59.70
52307;BME280;38249;48.920;12.882;2022-11-20T10:08:42;96493.41;;;8.33;60.03
52307;BME280;38249;48.920;12.882;2022-11-20T10:11:16;96485.53;;;8.41;60.20
52307;BME280;38249;48.920;12.882;2022-11-20T10:13:50;96480.97;;;8.42;60.13
52307;BME280;38249;48.920;12.882;2022-11-20T10:16:28;96479.34;;;8.46;60.15
52307;BME280;38249;48.920;12.882;2022-11-20T10:19:07;96477.94;;;8.49;60.21
52307;BME280;38249;48.920;12.882;2022-11-20T10:21:44;96477.66;;;8.50;59.93
52307;BME280;38249;48.920;12.882;2022-11-20T10:24:28;96479.94;;;8.57;59.76
52307;BME280;38249;48.920;12.882;2022-11-20T10:27:06;96485.84;;;8.54;59.97
52307;BME280;38249;48.920;12.882;2022-11-20T10:29:41;96488.03;;;8.52;59.79
52307;BME280;38249;48.920;12.882;2022-11-20T10:32:13;96485.66;;;8.50;59.79
52307;BME280;38249;48.920;12.882;2022-11-20T10:34:46;96486.66;;;8.54;59.93
52307;BME280;38249;48.920;12.882;2022-11-20T10:37:16;96490.94;;;8.69;59.68
52307;BME280;38249;48.920;12.882;2022-11-20T10:39:50;96487.75;;;8.53;60.19
52307;BME280;38249;48.920;12.882;2022-11-20T10:42:25;96476.78;;;8.55;60.35
52307;BME280;38249;48.920;12.882;2022-11-20T10:45:04;96481.53;;;8.58;60.22
52307;BME280;38249;48.920;12.882;2022-11-20T10:47:37;96478.69;;;8.35;60.46
52307;BME280;38249;48.920;12.882;2022-11-20T10:50:09;96484.38;;;8.61;60.44
52307;BME280;38249;48.920;12.882;2022-11-20T10:52:46;96483.31;;;8.62;60.35
52307;BME280;38249;48.920;12.882;2022-11-20T10:55:26;96476.84;;;8.63;60.27
52307;BME280;38249;48.920;12.882;2022-11-20T10:58:00;96481.91;;;8.65;60.16
52307;BME280;38249;48.920;12.882;2022-11-20T11:00:32;96475.16;;;8.54;60.21
52307;BME280;38249;48.920;12.882;2022-11-20T11:02:59;96463.22;;;8.51;60.22
52307;BME280;38249;48.920;12.882;2022-11-20T11:05:38;96465.41;;;8.77;59.87
52307;BME280;38249;48.920;12.882;2022-11-20T11:08:10;96472.22;;;8.69;60.12
52307;BME280;38249;48.920;12.882;2022-11-20T11:10:45;96471.34;;;8.74;59.95
52307;BME280;38249;48.920;12.882;2022-11-20T11:13:19;96461.03;;;8.81;59.84
52307;BME280;38249;48.920;12.882;2022-11-20T11:15:46;96457.78;;;8.56;59.95
52307;BME280;38249;48.920;12.882;2022-11-20T11:24:59;96441.13;;;8.73;59.93
52307;BME280;38249;48.920;12.882;2022-11-20T11:37:33;96432.53;;;8.76;60.13
52307;BME280;38249;48.920;12.882;2022-11-20T11:50:16;96426.00;;;8.83;60.02
52307;BME280;38249;48.920;12.882;2022-11-20T11:52:48;96428.00;;;8.77;60.28
52307;BME280;38249;48.920;12.882;2022-11-20T11:55:20;96424.63;;;8.85;60.18
52307;BME280;38249;48.920;12.882;2022-11-20T11:57:55;96424.31;;;8.87;60.18
52307;BME280;38249;48.920;12.882;2022-11-20T12:00:26;96422.34;;;8.78;60.12
52307;BME280;38249;48.920;12.882;2022-11-20T12:03:00;96423.63;;;8.95;60.10
52307;BME280;38249;48.920;12.882;2022-11-20T12:05:40;96420.94;;;8.95;59.97
52307;BME280;38249;48.920;12.882;2022-11-20T12:08:15;96430.53;;;8.96;60.18
52307;BME280;38249;48.920;12.882;2022-11-20T12:10:46;96421.53;;;8.92;59.87
52307;BME280;38249;48.920;12.882;2022-11-20T12:13:36;96430.34;;;9.06;59.87
52307;BME280;38249;48.920;12.882;2022-11-20T12:16:04;96426.78;;;8.83;60.19
52307;BME280;38249;48.920;12.882;2022-11-20T12:18:32;96422.72;;;8.86;60.10
52307;BME280;38249;48.920;12.882;2022-11-20T12:21:12;96423.69;;;9.04;60.11
52307;BME280;38249;48.920;12.882;2022-11-20T12:23:52;96420.22;;;9.03;60.24
52307;BME280;38249;48.920;12.882;2022-11-20T12:26:31;96413.22;;;8.79;60.82
52307;BME280;38249;48.920;12.882;2022-11-20T12:29:08;96417.97;;;8.83;60.95
52307;BME280;38249;48.920;12.882;2022-11-20T12:31:56;96413.53;;;8.92;61.00
52307;BME280;38249;48.920;12.882;2022-11-20T12:34:40;96408.00;;;8.88;60.79
52307;BME280;38249;48.920;12.882;2022-11-20T12:37:20;96410.06;;;8.77;61.26
52307;BME280;38249;48.920;12.882;2022-11-20T12:39:49;96408.41;;;8.68;61.30
52307;BME280;38249;48.920;12.882;2022-11-20T12:42:35;96404.38;;;8.93;60.98
52307;BME280;38249;48.920;12.882;2022-11-20T12:48:41;96410.03;;;8.91;60.90
52307;BME280;38249;48.920;12.882;2022-11-20T12:51:20;96402.94;;;8.87;61.02
52307;BME280;38249;48.920;12.882;2022-11-20T12:54:03;96407.00;;;8.84;61.34
52307;BME280;38249;48.920;12.882;2022-11-20T12:56:40;96408.47;;;8.90;61.27
52307;BME280;38249;48.920;12.882;2022-11-20T12:59:23;96399.75;;;8.98;61.15
52307;BME280;38249;48.920;12.882;2022-11-20T13:01:56;96392.25;;;8.87;61.35
52307;BME280;38249;48.920;12.882;2022-11-20T13:04:39;96398.38;;;8.87;61.48
52307;BME280;38249;48.920;12.882;2022-11-20T13:07:13;96392.34;;;8.81;61.44
52307;BME280;38249;48.920;12.882;2022-11-20T13:09:45;96396.00;;;8.86;61.73
52307;BME280;38249;48.920;12.882;2022-11-20T13:12:15;96404.22;;;8.89;61.80
52307;BME280;38249;48.920;12.882;2022-11-20T13:14:47;96400.44;;;8.90;61.76
52307;BME280;38249;48.920;12.882;2022-11-20T13:17:22;96400.16;;;8.92;61.55
52307;BME280;38249;48.920;12.882;2022-11-20T13:19:52;96405.03;;;8.90;61.45
52307;BME280;38249;48.920;12.882;2022-11-20T13:22:27;96389.94;;;8.94;61.70
52307;BME280;38249;48.920;12.882;2022-11-20T13:24:55;96384.81;;;8.84;61.64
52307;BME280;38249;48.920;12.882;2022-11-20T13:27:23;96383.47;;;8.72;61.95
52307;BME280;38249;48.920;12.882;2022-11-20T13:30:01;96384.13;;;8.92;61.83
52307;BME280;38249;48.920;12.882;2022-11-20T13:32:28;96389.59;;;8.73;61.66
52307;BME280;38249;48.920;12.882;2022-11-20T13:34:59;96380.75;;;8.86;61.59
52307;BME280;38249;48.920;12.882;2022-11-20T13:37:31;96380.75;;;8.86;61.91
52307;BME280;38249;48.920;12.882;2022-11-20T13:40:22;96376.09;;;8.92;61.50
52307;BME280;38249;48.920;12.882;2022-11-20T13:43:00;96366.41;;;8.82;61.85
52307;BME280;38249;48.920;12.882;2022-11-20T13:45:29;96378.22;;;8.67;62.17
52307;BME280;38249;48.920;12.882;2022-11-20T13:47:57;96380.50;;;8.60;61.99
52307;BME280;38249;48.920;12.882;2022-11-20T13:50:39;96375.41;;;8.86;61.73
52307;BME280;38249;48.920;12.882;2022-11-20T13:53:18;96378.66;;;8.83;61.91
52307;BME280;38249;48.920;12.882;2022-11-20T13:55:54;96369.63;;;8.70;62.30
52307;BME280;38249;48.920;12.882;2022-11-20T13:58:33;96372.38;;;8.65;62.56